Elmore, Vermont
Current Conditions -  °F | °C
As of 9:54 AM on Saturday 25 Oct 2014 (Local Time) from KMVL Reporting Station
Clear Clear  
Wind Chill: 43°   Ceiling: Unl
Heat Index: 43°   Visibility: 10mi
Dew Point: 38°   Wind: 3mph
Humidity: 82%   Direction: 340°NNW
Pressure: 29.75"   Gusts: NA
Location:  44.5407°N, 72.5287°W
Report Text: KMVL 251354Z AUTO 34003KT 10SM CLR 06/03 A2975 RMK AO2 SLP079 T00610033
Loading
Personal Weather Stations






























Interactive Weather Map
Tropical Storm Tracking
New forecast layout! Learn more

10-Day Weather Forecast

Advertisements
Track Severe Weather on mobile